sensor_id;sensor_type;location;lat;lon;timestamp;temperature;humidity
20594;DHT22;10455;48.732;10.266;2022-07-09T00:02:56;11.30;99.90
20594;DHT22;10455;48.732;10.266;2022-07-09T00:08:00;11.20;99.90
20594;DHT22;10455;48.732;10.266;2022-07-09T00:13:02;11.30;99.90
20594;DHT22;10455;48.732;10.266;2022-07-09T00:18:04;11.20;99.90
20594;DHT22;10455;48.732;10.266;2022-07-09T00:23:08;11.20;99.90
20594;DHT22;10455;48.732;10.266;2022-07-09T00:28:10;11.20;99.90
20594;DHT22;10455;48.732;10.266;2022-07-09T00:33:12;11.30;99.90
20594;DHT22;10455;48.732;10.266;2022-07-09T00:38:16;11.50;99.90
20594;DHT22;10455;48.732;10.266;2022-07-09T00:43:19;11.70;99.90
20594;DHT22;10455;48.732;10.266;2022-07-09T00:48:21;11.80;99.90
20594;DHT22;10455;48.732;10.266;2022-07-09T00:53:25;11.90;99.90
20594;DHT22;10455;48.732;10.266;2022-07-09T00:58:28;12.00;99.90
20594;DHT22;10455;48.732;10.266;2022-07-09T01:03:30;12.20;99.90
20594;DHT22;10455;48.732;10.266;2022-07-09T01:08:34;12.20;99.90
20594;DHT22;10455;48.732;10.266;2022-07-09T01:13:36;12.00;99.90
20594;DHT22;10455;48.732;10.266;2022-07-09T01:18:38;11.90;99.90
20594;DHT22;10455;48.732;10.266;2022-07-09T01:23:42;11.90;99.90
20594;DHT22;10455;48.732;10.266;2022-07-09T01:28:44;12.00;99.90
20594;DHT22;10455;48.732;10.266;2022-07-09T01:33:46;12.10;99.90
20594;DHT22;10455;48.732;10.266;2022-07-09T01:38:50;12.20;99.90
20594;DHT22;10455;48.732;10.266;2022-07-09T01:43:52;12.30;99.90
20594;DHT22;10455;48.732;10.266;2022-07-09T01:48:54;12.20;99.90
20594;DHT22;10455;48.732;10.266;2022-07-09T01:53:58;12.20;99.90
20594;DHT22;10455;48.732;10.266;2022-07-09T01:59:00;12.00;99.90
20594;DHT22;10455;48.732;10.266;2022-07-09T02:04:03;12.00;99.90
20594;DHT22;10455;48.732;10.266;2022-07-09T02:09:06;12.00;99.90
20594;DHT22;10455;48.732;10.266;2022-07-09T02:14:09;12.10;99.90
20594;DHT22;10455;48.732;10.266;2022-07-09T02:19:11;12.20;99.90
20594;DHT22;10455;48.732;10.266;2022-07-09T02:24:14;12.10;99.90
20594;DHT22;10455;48.732;10.266;2022-07-09T02:29:16;12.00;99.90
20594;DHT22;10455;48.732;10.266;2022-07-09T02:34:18;11.80;99.90
20594;DHT22;10455;48.732;10.266;2022-07-09T02:39:22;11.60;99.90
20594;DHT22;10455;48.732;10.266;2022-07-09T02:44:24;11.20;99.90
20594;DHT22;10455;48.732;10.266;2022-07-09T02:49:26;10.90;99.90
20594;DHT22;10455;48.732;10.266;2022-07-09T02:54:31;10.90;99.90
20594;DHT22;10455;48.732;10.266;2022-07-09T02:59:34;10.70;99.90
20594;DHT22;10455;48.732;10.266;2022-07-09T03:04:36;10.50;99.90
20594;DHT22;10455;48.732;10.266;2022-07-09T03:09:40;10.40;99.90
20594;DHT22;10455;48.732;10.266;2022-07-09T03:14:42;10.30;99.90
20594;DHT22;10455;48.732;10.266;2022-07-09T03:19:44;10.30;99.90
20594;DHT22;10455;48.732;10.266;2022-07-09T03:24:48;10.30;99.90
20594;DHT22;10455;48.732;10.266;2022-07-09T03:29:50;10.40;99.90
20594;DHT22;10455;48.732;10.266;2022-07-09T03:34:52;10.40;99.90
20594;DHT22;10455;48.732;10.266;2022-07-09T03:39:56;10.30;99.90
20594;DHT22;10455;48.732;10.266;2022-07-09T03:44:58;10.30;99.90
20594;DHT22;10455;48.732;10.266;2022-07-09T03:50:00;10.50;99.90
20594;DHT22;10455;48.732;10.266;2022-07-09T03:55:05;10.80;99.90
20594;DHT22;10455;48.732;10.266;2022-07-09T04:00:08;11.00;99.90
20594;DHT22;10455;48.732;10.266;2022-07-09T04:05:10;11.50;99.90
20594;DHT22;10455;48.732;10.266;2022-07-09T04:10:14;11.80;99.90
20594;DHT22;10455;48.732;10.266;2022-07-09T04:15:16;12.10;99.90
20594;DHT22;10455;48.732;10.266;2022-07-09T04:20:18;12.40;99.90
20594;DHT22;10455;48.732;10.266;2022-07-09T04:25:23;12.70;99.90
20594;DHT22;10455;48.732;10.266;2022-07-09T04:30:25;13.00;99.90
20594;DHT22;10455;48.732;10.266;2022-07-09T04:35:28;13.50;99.90
20594;DHT22;10455;48.732;10.266;2022-07-09T04:40:32;13.90;99.90
20594;DHT22;10455;48.732;10.266;2022-07-09T04:45:34;14.50;99.90
20594;DHT22;10455;48.732;10.266;2022-07-09T04:50:37;14.80;99.90
20594;DHT22;10455;48.732;10.266;2022-07-09T04:55:41;15.00;99.90
20594;DHT22;10455;48.732;10.266;2022-07-09T05:00:43;15.30;99.90
20594;DHT22;10455;48.732;10.266;2022-07-09T05:05:45;15.70;99.90
20594;DHT22;10455;48.732;10.266;2022-07-09T05:10:49;16.10;99.90
20594;DHT22;10455;48.732;10.266;2022-07-09T05:15:51;16.60;99.90
20594;DHT22;10455;48.732;10.266;2022-07-09T05:20:53;17.00;99.90
20594;DHT22;10455;48.732;10.266;2022-07-09T05:25:56;17.30;99.90
20594;DHT22;10455;48.732;10.266;2022-07-09T05:30:59;17.80;99.90
20594;DHT22;10455;48.732;10.266;2022-07-09T05:36:01;18.20;99.90
20594;DHT22;10455;48.732;10.266;2022-07-09T05:41:04;18.70;99.90
20594;DHT22;10455;48.732;10.266;2022-07-09T05:46:07;18.80;99.90
20594;DHT22;10455;48.732;10.266;2022-07-09T05:51:10;19.20;99.90
20594;DHT22;10455;48.732;10.266;2022-07-09T05:56:13;19.80;99.90
20594;DHT22;10455;48.732;10.266;2022-07-09T06:01:16;21.20;99.90
20594;DHT22;10455;48.732;10.266;2022-07-09T06:06:18;24.70;99.90
20594;DHT22;10455;48.732;10.266;2022-07-09T06:11:21;26.60;93.40
20594;DHT22;10455;48.732;10.266;2022-07-09T06:16:24;29.40;87.30
20594;DHT22;10455;48.732;10.266;2022-07-09T06:21:26;31.90;80.30
20594;DHT22;10455;48.732;10.266;2022-07-09T06:26:29;32.70;75.30
20594;DHT22;10455;48.732;10.266;2022-07-09T06:31:32;33.00;74.70
20594;DHT22;10455;48.732;10.266;2022-07-09T06:36:35;33.30;72.90
20594;DHT22;10455;48.732;10.266;2022-07-09T06:41:39;32.20;75.30
20594;DHT22;10455;48.732;10.266;2022-07-09T06:46:41;34.30;69.20
20594;DHT22;10455;48.732;10.266;2022-07-09T06:51:43;34.10;69.60
20594;DHT22;10455;48.732;10.266;2022-07-09T06:56:47;35.30;66.00
20594;DHT22;10455;48.732;10.266;2022-07-09T07:01:49;32.80;69.60
20594;DHT22;10455;48.732;10.266;2022-07-09T07:06:51;33.70;67.70
20594;DHT22;10455;48.732;10.266;2022-07-09T07:11:55;35.80;65.40
20594;DHT22;10455;48.732;10.266;2022-07-09T07:16:58;34.20;65.30
20594;DHT22;10455;48.732;10.266;2022-07-09T07:22:00;32.40;67.10
20594;DHT22;10455;48.732;10.266;2022-07-09T07:27:04;33.00;68.00
20594;DHT22;10455;48.732;10.266;2022-07-09T07:32:07;33.50;66.20
20594;DHT22;10455;48.732;10.266;2022-07-09T07:37:11;34.60;62.50
20594;DHT22;10455;48.732;10.266;2022-07-09T07:42:14;37.60;59.60
20594;DHT22;10455;48.732;10.266;2022-07-09T07:47:16;37.60;58.60
20594;DHT22;10455;48.732;10.266;2022-07-09T07:52:19;36.40;61.40
20594;DHT22;10455;48.732;10.266;2022-07-09T07:57:22;34.70;63.00
20594;DHT22;10455;48.732;10.266;2022-07-09T08:02:25;35.50;60.50
20594;DHT22;10455;48.732;10.266;2022-07-09T08:07:27;33.40;61.50
20594;DHT22;10455;48.732;10.266;2022-07-09T08:12:30;31.90;65.10
20594;DHT22;10455;48.732;10.266;2022-07-09T08:17:33;30.00;67.90
20594;DHT22;10455;48.732;10.266;2022-07-09T08:22:35;28.50;73.30
20594;DHT22;10455;48.732;10.266;2022-07-09T08:27:38;27.60;76.00
20594;DHT22;10455;48.732;10.266;2022-07-09T08:32:41;26.90;80.20
20594;DHT22;10455;48.732;10.266;2022-07-09T08:37:43;27.30;79.60
20594;DHT22;10455;48.732;10.266;2022-07-09T08:42:47;27.50;78.40
20594;DHT22;10455;48.732;10.266;2022-07-09T08:47:49;26.50;80.50
20594;DHT22;10455;48.732;10.266;2022-07-09T08:52:54;27.80;77.40
20594;DHT22;10455;48.732;10.266;2022-07-09T08:57:58;28.30;74.90
20594;DHT22;10455;48.732;10.266;2022-07-09T09:03:00;27.60;77.20
20594;DHT22;10455;48.732;10.266;2022-07-09T09:08:16;26.70;80.00
20594;DHT22;10455;48.732;10.266;2022-07-09T09:13:20;25.80;81.70
20594;DHT22;10455;48.732;10.266;2022-07-09T09:18:22;25.60;85.50
20594;DHT22;10455;48.732;10.266;2022-07-09T09:23:24;29.30;75.90
20594;DHT22;10455;48.732;10.266;2022-07-09T09:28:28;33.50;63.20
20594;DHT22;10455;48.732;10.266;2022-07-09T09:33:31;35.50;57.60
20594;DHT22;10455;48.732;10.266;2022-07-09T09:38:33;36.30;57.00
20594;DHT22;10455;48.732;10.266;2022-07-09T09:43:37;37.40;53.20
20594;DHT22;10455;48.732;10.266;2022-07-09T09:48:40;37.50;52.50
20594;DHT22;10455;48.732;10.266;2022-07-09T09:53:43;39.00;50.80
20594;DHT22;10455;48.732;10.266;2022-07-09T09:58:47;38.20;53.60
20594;DHT22;10455;48.732;10.266;2022-07-09T10:03:50;36.40;54.30
20594;DHT22;10455;48.732;10.266;2022-07-09T10:08:53;36.40;52.90
20594;DHT22;10455;48.732;10.266;2022-07-09T10:13:57;32.70;58.90
20594;DHT22;10455;48.732;10.266;2022-07-09T10:18:59;34.00;57.20
20594;DHT22;10455;48.732;10.266;2022-07-09T10:24:01;34.90;55.30
20594;DHT22;10455;48.732;10.266;2022-07-09T10:29:17;35.10;54.00
20594;DHT22;10455;48.732;10.266;2022-07-09T10:39:53;28.10;67.60
20594;DHT22;10455;48.732;10.266;2022-07-09T10:44:57;28.10;68.70
20594;DHT22;10455;48.732;10.266;2022-07-09T10:50:03;29.00;64.80
20594;DHT22;10455;48.732;10.266;2022-07-09T10:55:06;27.50;66.70
20594;DHT22;10455;48.732;10.266;2022-07-09T11:00:14;28.00;68.70
20594;DHT22;10455;48.732;10.266;2022-07-09T11:05:16;28.60;66.90
20594;DHT22;10455;48.732;10.266;2022-07-09T11:10:19;28.90;67.90
20594;DHT22;10455;48.732;10.266;2022-07-09T11:15:22;27.90;69.10
20594;DHT22;10455;48.732;10.266;2022-07-09T11:20:27;28.30;68.00
20594;DHT22;10455;48.732;10.266;2022-07-09T11:25:30;29.40;67.70
20594;DHT22;10455;48.732;10.266;2022-07-09T11:30:34;30.00;60.60
20594;DHT22;10455;48.732;10.266;2022-07-09T11:35:37;28.30;69.00
20594;DHT22;10455;48.732;10.266;2022-07-09T11:40:39;27.60;69.20
20594;DHT22;10455;48.732;10.266;2022-07-09T11:45:52;27.80;69.70
20594;DHT22;10455;48.732;10.266;2022-07-09T11:50:54;28.60;68.30
20594;DHT22;10455;48.732;10.266;2022-07-09T11:56:00;28.70;69.30
20594;DHT22;10455;48.732;10.266;2022-07-09T12:01:11;30.60;69.20
20594;DHT22;10455;48.732;10.266;2022-07-09T12:06:52;31.70;64.70
20594;DHT22;10455;48.732;10.266;2022-07-09T12:11:56;32.20;60.40
20594;DHT22;10455;48.732;10.266;2022-07-09T12:16:59;32.70;59.70
20594;DHT22;10455;48.732;10.266;2022-07-09T12:22:12;31.30;60.70
20594;DHT22;10455;48.732;10.266;2022-07-09T12:27:14;30.80;63.90
20594;DHT22;10455;48.732;10.266;2022-07-09T12:32:19;30.40;64.70
20594;DHT22;10455;48.732;10.266;2022-07-09T12:37:21;31.80;59.40
20594;DHT22;10455;48.732;10.266;2022-07-09T12:42:23;31.60;63.30
20594;DHT22;10455;48.732;10.266;2022-07-09T12:47:29;31.20;61.30
20594;DHT22;10455;48.732;10.266;2022-07-09T12:52:31;30.90;63.70
20594;DHT22;10455;48.732;10.266;2022-07-09T12:57:34;31.10;61.80
20594;DHT22;10455;48.732;10.266;2022-07-09T13:02:38;31.10;63.00
20594;DHT22;10455;48.732;10.266;2022-07-09T13:07:41;31.30;63.80
20594;DHT22;10455;48.732;10.266;2022-07-09T13:12:43;31.70;64.70
20594;DHT22;10455;48.732;10.266;2022-07-09T13:17:46;30.90;67.40
20594;DHT22;10455;48.732;10.266;2022-07-09T13:22:48;31.00;67.30
20594;DHT22;10455;48.732;10.266;2022-07-09T13:27:51;30.70;64.60
20594;DHT22;10455;48.732;10.266;2022-07-09T13:32:54;30.70;63.50
20594;DHT22;10455;48.732;10.266;2022-07-09T13:37:57;30.90;64.80
20594;DHT22;10455;48.732;10.266;2022-07-09T13:42:59;31.90;63.60
20594;DHT22;10455;48.732;10.266;2022-07-09T13:48:04;31.70;62.30
20594;DHT22;10455;48.732;10.266;2022-07-09T13:53:06;29.60;64.40
20594;DHT22;10455;48.732;10.266;2022-07-09T13:58:09;28.60;68.00
20594;DHT22;10455;48.732;10.266;2022-07-09T14:03:14;28.50;67.40
20594;DHT22;10455;48.732;10.266;2022-07-09T14:08:16;28.70;69.30
20594;DHT22;10455;48.732;10.266;2022-07-09T14:13:18;28.50;69.20
20594;DHT22;10455;48.732;10.266;2022-07-09T14:18:22;27.80;70.70
20594;DHT22;10455;48.732;10.266;2022-07-09T14:23:24;27.20;74.50
20594;DHT22;10455;48.732;10.266;2022-07-09T14:28:26;26.80;76.10
20594;DHT22;10455;48.732;10.266;2022-07-09T14:33:29;28.70;72.80
20594;DHT22;10455;48.732;10.266;2022-07-09T14:38:32;29.10;69.40
20594;DHT22;10455;48.732;10.266;2022-07-09T14:43:34;28.30;69.00
20594;DHT22;10455;48.732;10.266;2022-07-09T14:48:41;28.10;72.60
20594;DHT22;10455;48.732;10.266;2022-07-09T14:53:43;27.70;73.10
20594;DHT22;10455;48.732;10.266;2022-07-09T14:58:45;27.70;73.70
20594;DHT22;10455;48.732;10.266;2022-07-09T15:03:50;28.30;70.50
20594;DHT22;10455;48.732;10.266;2022-07-09T15:08:52;29.40;69.30
20594;DHT22;10455;48.732;10.266;2022-07-09T15:13:54;28.70;70.60
20594;DHT22;10455;48.732;10.266;2022-07-09T15:18:58;29.90;68.80
20594;DHT22;10455;48.732;10.266;2022-07-09T15:24:00;31.10;65.40
20594;DHT22;10455;48.732;10.266;2022-07-09T15:29:03;31.60;66.20
20594;DHT22;10455;48.732;10.266;2022-07-09T15:34:06;31.10;65.60
20594;DHT22;10455;48.732;10.266;2022-07-09T15:39:08;28.60;68.20
20594;DHT22;10455;48.732;10.266;2022-07-09T15:44:10;27.30;71.80
20594;DHT22;10455;48.732;10.266;2022-07-09T15:49:15;26.50;74.60
20594;DHT22;10455;48.732;10.266;2022-07-09T15:54:18;26.10;75.90
20594;DHT22;10455;48.732;10.266;2022-07-09T15:59:20;26.40;75.30
20594;DHT22;10455;48.732;10.266;2022-07-09T16:04:24;27.00;74.80
20594;DHT22;10455;48.732;10.266;2022-07-09T16:09:26;28.30;71.60
20594;DHT22;10455;48.732;10.266;2022-07-09T16:14:28;27.50;69.50
20594;DHT22;10455;48.732;10.266;2022-07-09T16:19:32;27.20;74.30
20594;DHT22;10455;48.732;10.266;2022-07-09T16:24:34;27.80;73.10
20594;DHT22;10455;48.732;10.266;2022-07-09T16:29:36;27.70;72.50
20594;DHT22;10455;48.732;10.266;2022-07-09T16:34:40;26.40;74.10
20594;DHT22;10455;48.732;10.266;2022-07-09T16:39:42;25.80;77.90
20594;DHT22;10455;48.732;10.266;2022-07-09T16:44:45;25.80;79.20
20594;DHT22;10455;48.732;10.266;2022-07-09T16:49:49;25.30;78.70
20594;DHT22;10455;48.732;10.266;2022-07-09T16:54:51;24.90;80.90
20594;DHT22;10455;48.732;10.266;2022-07-09T16:59:53;24.70;81.70
20594;DHT22;10455;48.732;10.266;2022-07-09T17:04:57;24.60;82.80
20594;DHT22;10455;48.732;10.266;2022-07-09T17:09:59;24.70;81.50
20594;DHT22;10455;48.732;10.266;2022-07-09T17:15:01;24.50;83.10
20594;DHT22;10455;48.732;10.266;2022-07-09T17:20:06;24.50;84.50
20594;DHT22;10455;48.732;10.266;2022-07-09T17:25:09;24.10;86.50
20594;DHT22;10455;48.732;10.266;2022-07-09T17:30:11;23.90;86.80
20594;DHT22;10455;48.732;10.266;2022-07-09T17:35:16;23.80;87.40
20594;DHT22;10455;48.732;10.266;2022-07-09T17:40:18;23.70;88.40
20594;DHT22;10455;48.732;10.266;2022-07-09T17:45:21;23.60;89.00
20594;DHT22;10455;48.732;10.266;2022-07-09T17:50:24;23.50;90.60
20594;DHT22;10455;48.732;10.266;2022-07-09T17:55:27;23.40;91.10
20594;DHT22;10455;48.732;10.266;2022-07-09T18:00:30;23.20;91.40
20594;DHT22;10455;48.732;10.266;2022-07-09T18:05:35;23.00;91.80
20594;DHT22;10455;48.732;10.266;2022-07-09T18:10:37;22.80;92.20
20594;DHT22;10455;48.732;10.266;2022-07-09T18:15:40;22.70;92.20
20594;DHT22;10455;48.732;10.266;2022-07-09T18:20:43;22.50;92.90
20594;DHT22;10455;48.732;10.266;2022-07-09T18:25:46;22.30;93.10
20594;DHT22;10455;48.732;10.266;2022-07-09T18:30:48;21.90;94.40
20594;DHT22;10455;48.732;10.266;2022-07-09T18:35:51;21.50;95.20
20594;DHT22;10455;48.732;10.266;2022-07-09T18:40:54;21.10;95.90
20594;DHT22;10455;48.732;10.266;2022-07-09T18:45:56;20.70;96.00
20594;DHT22;10455;48.732;10.266;2022-07-09T18:51:00;20.50;96.60
20594;DHT22;10455;48.732;10.266;2022-07-09T18:56:02;20.50;96.90
20594;DHT22;10455;48.732;10.266;2022-07-09T19:01:04;20.40;97.20
20594;DHT22;10455;48.732;10.266;2022-07-09T19:06:08;20.40;97.40
20594;DHT22;10455;48.732;10.266;2022-07-09T19:11:10;20.30;97.30
20594;DHT22;10455;48.732;10.266;2022-07-09T19:16:12;20.30;97.50
20594;DHT22;10455;48.732;10.266;2022-07-09T19:21:17;20.30;97.80
20594;DHT22;10455;48.732;10.266;2022-07-09T19:26:19;20.10;98.10
20594;DHT22;10455;48.732;10.266;2022-07-09T19:31:23;20.10;98.50
20594;DHT22;10455;48.732;10.266;2022-07-09T19:36:44;20.00;98.80
20594;DHT22;10455;48.732;10.266;2022-07-09T19:41:46;19.80;99.10
20594;DHT22;10455;48.732;10.266;2022-07-09T19:46:50;19.70;99.30
20594;DHT22;10455;48.732;10.266;2022-07-09T19:51:53;19.70;99.80
20594;DHT22;10455;48.732;10.266;2022-07-09T19:56:56;19.60;99.90
20594;DHT22;10455;48.732;10.266;2022-07-09T20:01:58;19.60;99.90
20594;DHT22;10455;48.732;10.266;2022-07-09T20:07:02;19.70;99.90
20594;DHT22;10455;48.732;10.266;2022-07-09T20:12:04;19.60;99.90
20594;DHT22;10455;48.732;10.266;2022-07-09T20:17:06;19.60;99.90
20594;DHT22;10455;48.732;10.266;2022-07-09T20:22:10;19.70;99.90
20594;DHT22;10455;48.732;10.266;2022-07-09T20:27:12;19.60;99.90
20594;DHT22;10455;48.732;10.266;2022-07-09T20:32:16;19.60;99.90
20594;DHT22;10455;48.732;10.266;2022-07-09T20:37:20;19.60;99.90
20594;DHT22;10455;48.732;10.266;2022-07-09T20:42:22;19.60;99.90
20594;DHT22;10455;48.732;10.266;2022-07-09T20:47:24;19.70;99.90
20594;DHT22;10455;48.732;10.266;2022-07-09T20:52:27;19.50;99.90
20594;DHT22;10455;48.732;10.266;2022-07-09T20:57:30;19.30;99.90
20594;DHT22;10455;48.732;10.266;2022-07-09T21:02:32;19.10;99.90
20594;DHT22;10455;48.732;10.266;2022-07-09T21:07:37;19.10;99.90
20594;DHT22;10455;48.732;10.266;2022-07-09T21:12:39;19.00;99.90
20594;DHT22;10455;48.732;10.266;2022-07-09T21:17:41;18.90;99.90
20594;DHT22;10455;48.732;10.266;2022-07-09T21:23:04;18.70;99.90
20594;DHT22;10455;48.732;10.266;2022-07-09T21:28:06;18.70;99.90
20594;DHT22;10455;48.732;10.266;2022-07-09T21:33:08;18.50;99.90
20594;DHT22;10455;48.732;10.266;2022-07-09T21:38:12;18.50;99.90
20594;DHT22;10455;48.732;10.266;2022-07-09T21:43:14;18.40;99.90
20594;DHT22;10455;48.732;10.266;2022-07-09T21:48:16;18.40;99.90
20594;DHT22;10455;48.732;10.266;2022-07-09T21:53:20;18.10;99.90
20594;DHT22;10455;48.732;10.266;2022-07-09T21:58:22;18.00;99.90
20594;DHT22;10455;48.732;10.266;2022-07-09T22:03:25;18.20;99.90
20594;DHT22;10455;48.732;10.266;2022-07-09T22:08:29;17.70;99.90
20594;DHT22;10455;48.732;10.266;2022-07-09T22:13:31;17.40;99.90
20594;DHT22;10455;48.732;10.266;2022-07-09T22:18:33;17.50;99.90
20594;DHT22;10455;48.732;10.266;2022-07-09T22:23:37;17.40;99.90
20594;DHT22;10455;48.732;10.266;2022-07-09T22:28:40;17.60;99.90
20594;DHT22;10455;48.732;10.266;2022-07-09T22:33:42;17.20;99.90
20594;DHT22;10455;48.732;10.266;2022-07-09T22:38:46;16.80;99.90
20594;DHT22;10455;48.732;10.266;2022-07-09T22:43:48;17.10;99.90
20594;DHT22;10455;48.732;10.266;2022-07-09T22:48:50;17.30;99.90
20594;DHT22;10455;48.732;10.266;2022-07-09T22:53:53;17.30;99.90
20594;DHT22;10455;48.732;10.266;2022-07-09T22:58:56;17.20;99.90
20594;DHT22;10455;48.732;10.266;2022-07-09T23:03:58;17.10;99.90
20594;DHT22;10455;48.732;10.266;2022-07-09T23:09:02;17.00;99.90
20594;DHT22;10455;48.732;10.266;2022-07-09T23:14:04;17.00;99.90
20594;DHT22;10455;48.732;10.266;2022-07-09T23:19:07;17.00;99.90
20594;DHT22;10455;48.732;10.266;2022-07-09T23:24:11;17.00;99.90
20594;DHT22;10455;48.732;10.266;2022-07-09T23:29:13;17.00;99.90
20594;DHT22;10455;48.732;10.266;2022-07-09T23:34:15;16.80;99.90
20594;DHT22;10455;48.732;10.266;2022-07-09T23:39:19;16.60;99.90
20594;DHT22;10455;48.732;10.266;2022-07-09T23:44:21;16.50;99.90
20594;DHT22;10455;48.732;10.266;2022-07-09T23:49:23;16.20;99.90
20594;DHT22;10455;48.732;10.266;2022-07-09T23:54:27;16.00;99.90
20594;DHT22;10455;48.732;10.266;2022-07-09T23:59:29;15.90;99.90
